createdAt,value
2019-03-30T00:01:34.001Z,15.73
2019-03-30T00:03:39.315Z,15.17
2019-03-30T00:05:44.588Z,15.17
2019-03-30T00:07:50.364Z,16.07
2019-03-30T00:09:55.731Z,15.70
2019-03-30T00:12:01.059Z,15.00
2019-03-30T00:14:06.458Z,15.80
2019-03-30T00:16:11.815Z,15.60
2019-03-30T00:18:17.148Z,15.30
2019-03-30T00:20:22.827Z,13.97
2019-03-30T00:22:28.272Z,14.53
2019-03-30T00:24:33.892Z,15.33
2019-03-30T00:26:39.990Z,14.83
2019-03-30T00:28:45.570Z,15.67
2019-03-30T00:30:50.859Z,16.27
2019-03-30T00:32:56.306Z,14.37
2019-03-30T00:35:01.636Z,15.63
2019-03-30T00:37:06.948Z,15.00
2019-03-30T00:39:12.237Z,15.77
2019-03-30T00:41:17.817Z,15.07
2019-03-30T00:43:23.138Z,15.47
2019-03-30T00:45:28.412Z,15.50
2019-03-30T00:47:33.687Z,14.60
2019-03-30T00:49:49.140Z,16.40
2019-03-30T00:51:46.635Z,15.00
2019-03-30T00:53:51.972Z,14.70
2019-03-30T00:55:57.266Z,14.40
2019-03-30T00:58:02.682Z,14.73
2019-03-30T01:00:08.500Z,15.70
2019-03-30T01:02:13.744Z,15.37
2019-03-30T01:04:19.030Z,15.50
2019-03-30T01:06:24.477Z,13.90
2019-03-30T01:08:30.067Z,14.40
2019-03-30T01:10:35.694Z,13.97
2019-03-30T01:12:41.004Z,15.40
2019-03-30T01:14:46.306Z,15.07
2019-03-30T01:16:51.600Z,14.50
2019-03-30T01:18:56.873Z,14.17
2019-03-30T01:21:02.467Z,13.97
2019-03-30T01:23:07.773Z,14.70
2019-03-30T01:25:13.513Z,14.03
2019-03-30T01:27:19.127Z,15.30
2019-03-30T01:29:24.437Z,14.53
2019-03-30T01:31:29.707Z,15.43
2019-03-30T01:33:35.016Z,14.47
2019-03-30T01:35:40.500Z,14.23
2019-03-30T01:37:45.827Z,15.60
2019-03-30T01:39:51.162Z,14.13
2019-03-30T01:41:56.410Z,14.83
2019-03-30T01:44:01.749Z,15.27
2019-03-30T01:46:07.002Z,14.27
2019-03-30T01:48:12.244Z,14.00
2019-03-30T01:50:18.237Z,14.50
2019-03-30T01:52:23.591Z,14.70
2019-03-30T01:54:29.260Z,13.23
2019-03-30T01:56:34.616Z,13.33
2019-03-30T01:58:40.180Z,14.00
2019-03-30T02:00:45.918Z,13.60
2019-03-30T02:02:51.182Z,14.80
2019-03-30T02:04:56.617Z,14.27
2019-03-30T02:07:01.969Z,14.03
2019-03-30T02:09:07.957Z,14.60
2019-03-30T02:11:13.234Z,13.67
2019-03-30T02:13:18.577Z,14.87
2019-03-30T02:15:24.197Z,14.70
2019-03-30T02:17:29.527Z,13.33
2019-03-30T02:19:35.144Z,14.30
2019-03-30T02:21:40.723Z,14.00
2019-03-30T02:23:46.387Z,14.67
2019-03-30T02:25:51.660Z,14.97
2019-03-30T02:27:57.070Z,14.00
2019-03-30T02:30:02.426Z,15.13
2019-03-30T02:32:07.733Z,14.47
2019-03-30T02:34:13.057Z,14.80
2019-03-30T02:36:18.337Z,14.80
2019-03-30T02:38:23.583Z,14.50
2019-03-30T02:40:28.900Z,14.47
2019-03-30T02:42:34.174Z,16.23
2019-03-30T02:44:39.466Z,14.87
2019-03-30T02:46:44.779Z,13.97
2019-03-30T02:48:50.438Z,15.40
2019-03-30T02:50:55.744Z,14.10
2019-03-30T02:53:01.052Z,13.90
2019-03-30T02:55:06.327Z,15.77
2019-03-30T02:57:11.629Z,14.80
2019-03-30T02:59:16.920Z,14.23
2019-03-30T03:01:22.190Z,13.67
2019-03-30T03:03:27.507Z,13.43
2019-03-30T03:05:32.755Z,14.50
2019-03-30T03:07:38.048Z,14.43
2019-03-30T03:09:43.346Z,14.77
2019-03-30T03:11:48.615Z,13.73
2019-03-30T03:13:53.926Z,14.10
2019-03-30T03:15:59.317Z,14.03
2019-03-30T03:18:04.599Z,13.73
2019-03-30T03:20:10.107Z,13.30
2019-03-30T03:22:15.697Z,13.97
2019-03-30T03:24:21.472Z,14.07
2019-03-30T03:26:27.118Z,13.73
2019-03-30T03:28:32.788Z,13.63
2019-03-30T03:30:38.074Z,15.10
2019-03-30T03:32:43.804Z,14.40
2019-03-30T03:34:49.088Z,14.77
2019-03-30T03:36:54.373Z,14.60
2019-03-30T03:38:59.887Z,15.30
2019-03-30T03:41:05.189Z,15.10
2019-03-30T03:43:10.903Z,15.73
2019-03-30T03:45:16.269Z,15.27
2019-03-30T03:47:21.902Z,14.60
2019-03-30T03:49:27.190Z,14.93
2019-03-30T03:51:33.074Z,14.90
2019-03-30T03:53:38.779Z,13.37
2019-03-30T03:55:45.146Z,13.90
2019-03-30T03:57:50.671Z,15.60
2019-03-30T03:59:58.364Z,13.90
2019-03-30T04:02:04.744Z,13.50
2019-03-30T04:04:11.626Z,15.27
2019-03-30T04:06:19.885Z,15.57
2019-03-30T04:08:27.791Z,14.43
2019-03-30T04:10:36.380Z,14.90
2019-03-30T04:12:43.844Z,15.73
2019-03-30T04:14:52.757Z,15.03
2019-03-30T04:16:58.022Z,17.47
2019-03-30T04:19:03.292Z,15.37
2019-03-30T04:21:08.615Z,15.10
2019-03-30T04:23:14.335Z,14.33
2019-03-30T04:25:19.642Z,14.43
2019-03-30T04:27:24.987Z,15.47
2019-03-30T04:29:30.274Z,14.33
2019-03-30T04:31:35.701Z,14.07
2019-03-30T04:33:40.991Z,14.53
2019-03-30T04:35:46.316Z,14.03
2019-03-30T04:37:52.078Z,13.53
2019-03-30T04:39:57.727Z,13.53
2019-03-30T04:42:03.330Z,13.83
2019-03-30T04:44:08.668Z,14.87
2019-03-30T04:46:13.946Z,14.77
2019-03-30T04:48:19.577Z,14.67
2019-03-30T04:50:24.840Z,13.50
2019-03-30T04:52:30.136Z,13.70
2019-03-30T04:54:35.477Z,14.83
2019-03-30T04:56:40.820Z,14.67
2019-03-30T04:58:46.423Z,13.23
2019-03-30T05:00:51.727Z,14.30
2019-03-30T05:02:57.305Z,13.97
2019-03-30T05:05:02.829Z,14.10
2019-03-30T05:07:08.140Z,13.27
2019-03-30T05:09:13.696Z,12.63
2019-03-30T05:11:19.012Z,14.13
2019-03-30T05:13:24.634Z,13.97
2019-03-30T05:15:29.915Z,13.70
2019-03-30T05:17:47.030Z,13.63
2019-03-30T05:19:42.526Z,12.33
2019-03-30T05:21:48.285Z,12.90
2019-03-30T05:23:53.642Z,13.23
2019-03-30T05:25:59.246Z,14.00
2019-03-30T05:28:04.564Z,13.47
2019-03-30T05:30:11.515Z,13.23
2019-03-30T05:32:17.132Z,13.27
2019-03-30T05:34:22.489Z,13.97
2019-03-30T05:36:28.139Z,14.23
2019-03-30T05:38:33.478Z,14.00
2019-03-30T05:40:38.831Z,12.77
2019-03-30T05:42:44.091Z,13.73
2019-03-30T05:44:49.418Z,12.83
2019-03-30T05:46:54.828Z,13.00
2019-03-30T05:49:00.107Z,12.97
2019-03-30T05:51:05.485Z,12.73
2019-03-30T05:53:10.814Z,13.00
2019-03-30T05:55:16.156Z,12.70
2019-03-30T05:57:21.593Z,10.80
2019-03-30T05:59:27.248Z,12.40
2019-03-30T06:01:32.644Z,11.47
2019-03-30T06:03:37.894Z,11.37
2019-03-30T06:05:43.366Z,11.80
2019-03-30T06:07:48.814Z,11.00
2019-03-30T06:09:54.163Z,11.27
2019-03-30T06:11:59.531Z,11.60
2019-03-30T06:14:04.865Z,10.50
2019-03-30T06:16:10.124Z,10.20
2019-03-30T06:18:15.583Z,11.13
2019-03-30T06:20:20.872Z,10.50
2019-03-30T06:22:39.535Z,10.50
2019-03-30T06:24:33.478Z,10.80
2019-03-30T06:26:38.799Z,10.50
2019-03-30T06:28:44.667Z,10.60
2019-03-30T06:30:50.017Z,9.70
2019-03-30T06:32:55.607Z,9.50
2019-03-30T06:35:02.035Z,9.57
2019-03-30T06:37:08.124Z,10.93
2019-03-30T06:39:16.174Z,9.50
2019-03-30T06:41:22.883Z,9.97
2019-03-30T06:43:28.132Z,10.10
2019-03-30T06:45:34.236Z,9.60
2019-03-30T06:47:39.563Z,9.70
2019-03-30T06:49:44.921Z,8.50
2019-03-30T06:51:50.284Z,8.90
2019-03-30T06:53:55.980Z,9.17
2019-03-30T06:56:01.302Z,9.23
2019-03-30T06:58:07.143Z,9.13
2019-03-30T07:00:12.773Z,8.50
2019-03-30T07:02:18.210Z,9.00
2019-03-30T07:04:23.579Z,8.90
2019-03-30T07:06:30.398Z,8.50
2019-03-30T07:08:36.632Z,9.40
2019-03-30T07:10:43.476Z,8.67
2019-03-30T07:12:50.306Z,8.43
2019-03-30T07:14:58.674Z,9.17
2019-03-30T07:17:05.204Z,8.80
2019-03-30T07:19:12.038Z,7.70
2019-03-30T07:21:17.408Z,8.43
2019-03-30T07:23:23.237Z,8.38
2019-03-30T07:25:28.606Z,7.75
2019-03-30T07:27:35.290Z,7.75
2019-03-30T07:29:40.591Z,7.35
2019-03-30T07:31:46.418Z,7.58
2019-03-30T07:33:51.647Z,7.70
2019-03-30T07:35:56.991Z,7.60
2019-03-30T07:38:03.120Z,7.50
2019-03-30T07:40:08.901Z,7.62
2019-03-30T07:42:14.599Z,7.28
2019-03-30T07:44:20.158Z,7.65
2019-03-30T07:46:25.535Z,7.58
2019-03-30T07:48:34.467Z,6.37
2019-03-30T07:50:40.073Z,7.30
2019-03-30T07:52:45.618Z,7.75
2019-03-30T07:54:50.976Z,6.72
2019-03-30T07:57:05.077Z,7.67
2019-03-30T07:59:03.622Z,6.70
2019-03-30T08:01:08.971Z,7.60
2019-03-30T08:03:14.305Z,6.87
2019-03-30T08:05:19.694Z,6.92
2019-03-30T08:07:25.068Z,6.97
2019-03-30T08:09:30.543Z,7.70
2019-03-30T08:11:36.029Z,7.90
2019-03-30T08:13:41.369Z,8.10
2019-03-30T08:15:46.696Z,8.30
2019-03-30T08:17:52.000Z,8.90
2019-03-30T08:20:00.115Z,8.28
2019-03-30T08:22:06.014Z,9.13
2019-03-30T08:24:12.359Z,9.47
2019-03-30T08:26:18.113Z,9.33
2019-03-30T08:28:23.598Z,10.03
2019-03-30T08:30:28.963Z,9.63
2019-03-30T08:32:34.865Z,10.53
2019-03-30T08:34:40.738Z,9.20
2019-03-30T08:36:46.054Z,8.80
2019-03-30T08:38:53.131Z,9.03
2019-03-30T08:40:58.745Z,8.88
2019-03-30T08:43:04.041Z,9.93
2019-03-30T08:45:10.248Z,9.00
2019-03-30T08:47:15.686Z,9.68
2019-03-30T08:49:21.059Z,8.70
2019-03-30T08:51:26.458Z,8.83
2019-03-30T08:53:31.763Z,9.30
2019-03-30T08:55:37.061Z,9.25
2019-03-30T08:57:42.849Z,10.08
2019-03-30T08:59:48.136Z,10.20
2019-03-30T09:01:53.416Z,9.28
2019-03-30T09:04:00.580Z,9.50
2019-03-30T09:06:06.423Z,9.38
2019-03-30T09:08:11.838Z,9.98
2019-03-30T09:10:17.637Z,9.53
2019-03-30T09:12:22.978Z,10.15
2019-03-30T09:14:28.317Z,9.63
2019-03-30T09:16:33.641Z,8.93
2019-03-30T09:18:38.934Z,9.03
2019-03-30T09:20:44.606Z,8.68
2019-03-30T09:22:50.399Z,10.08
2019-03-30T09:24:56.776Z,9.50
2019-03-30T09:27:02.430Z,9.50
2019-03-30T09:29:08.394Z,10.30
2019-03-30T09:31:14.136Z,9.43
2019-03-30T09:33:20.812Z,9.68
2019-03-30T09:35:26.361Z,9.58
2019-03-30T09:37:31.915Z,9.53
2019-03-30T09:39:37.179Z,9.13
2019-03-30T09:41:42.870Z,9.55
2019-03-30T09:43:48.315Z,9.45
2019-03-30T09:45:53.935Z,9.35
2019-03-30T09:47:59.261Z,9.50
2019-03-30T09:50:04.698Z,9.03
2019-03-30T09:52:10.034Z,8.75
2019-03-30T09:54:23.483Z,8.75
2019-03-30T09:56:24.523Z,8.50
2019-03-30T09:58:30.933Z,9.10
2019-03-30T10:00:36.279Z,9.23
2019-03-30T10:02:41.603Z,9.35
2019-03-30T10:04:46.947Z,8.20
2019-03-30T10:06:52.355Z,8.10
2019-03-30T10:08:57.741Z,7.90
2019-03-30T10:11:12.438Z,6.85
2019-03-30T10:13:17.716Z,8.23
2019-03-30T10:15:23.552Z,7.70
2019-03-30T10:17:28.840Z,8.03
2019-03-30T10:19:34.504Z,7.22
2019-03-30T10:21:40.050Z,6.65
2019-03-30T10:23:47.954Z,6.50
2019-03-30T10:25:53.673Z,5.97
2019-03-30T10:27:59.084Z,6.90
2019-03-30T10:30:04.526Z,6.58
2019-03-30T10:32:09.957Z,6.90
2019-03-30T10:34:15.828Z,6.95
2019-03-30T10:36:21.432Z,6.78
2019-03-30T10:38:26.774Z,8.58
2019-03-30T10:40:32.088Z,6.03
2019-03-30T10:42:37.437Z,7.03
2019-03-30T10:44:42.744Z,6.22
2019-03-30T10:46:48.019Z,6.70
2019-03-30T10:48:53.393Z,6.35
2019-03-30T10:50:58.665Z,7.08
2019-03-30T10:53:03.957Z,6.83
2019-03-30T10:55:10.642Z,7.58
2019-03-30T10:57:16.261Z,6.35
2019-03-30T10:59:21.594Z,7.05
2019-03-30T11:01:27.127Z,7.20
2019-03-30T11:03:32.618Z,6.92
2019-03-30T11:05:38.542Z,6.67
2019-03-30T11:07:43.914Z,7.00
2019-03-30T11:09:50.409Z,7.33
2019-03-30T11:11:56.112Z,6.58
2019-03-30T11:14:01.446Z,5.87
2019-03-30T11:16:06.738Z,6.80
2019-03-30T11:18:13.540Z,6.87
2019-03-30T11:20:21.590Z,7.12
2019-03-30T11:22:26.905Z,7.35
2019-03-30T11:24:34.156Z,7.37
2019-03-30T11:26:39.517Z,6.70
2019-03-30T11:28:45.328Z,6.47
2019-03-30T11:30:50.911Z,6.92
2019-03-30T11:32:56.206Z,6.70
2019-03-30T11:35:01.545Z,6.85
2019-03-30T11:37:07.015Z,7.17
2019-03-30T11:39:12.935Z,7.20
2019-03-30T11:41:18.213Z,7.85
2019-03-30T11:43:23.483Z,8.48
2019-03-30T11:45:28.962Z,7.20
2019-03-30T11:47:34.276Z,7.08
2019-03-30T11:49:39.650Z,7.12
2019-03-30T11:51:44.977Z,7.95
2019-03-30T11:53:50.776Z,8.50
2019-03-30T11:55:56.265Z,8.68
2019-03-30T11:58:01.581Z,8.88
2019-03-30T12:00:07.371Z,7.65
2019-03-30T12:02:26.918Z,7.43
2019-03-30T12:04:20.089Z,7.30
2019-03-30T12:06:25.416Z,7.17
2019-03-30T12:08:31.098Z,8.40
2019-03-30T12:10:36.901Z,8.43
2019-03-30T12:12:42.272Z,7.87
2019-03-30T12:14:47.558Z,8.30
2019-03-30T12:16:52.823Z,8.00
2019-03-30T12:18:58.316Z,8.20
2019-03-30T12:21:04.040Z,7.95
2019-03-30T12:23:09.360Z,7.03
2019-03-30T12:25:14.700Z,6.08
2019-03-30T12:27:20.588Z,6.83
2019-03-30T12:29:25.882Z,6.75
2019-03-30T12:31:31.258Z,7.03
2019-03-30T12:33:36.562Z,7.17
2019-03-30T12:35:41.900Z,7.25
2019-03-30T12:37:47.209Z,6.95
2019-03-30T12:39:52.506Z,6.95
2019-03-30T12:41:58.276Z,7.10
2019-03-30T12:44:03.538Z,6.25
2019-03-30T12:46:08.895Z,6.47
2019-03-30T12:48:14.401Z,6.85
2019-03-30T12:50:19.752Z,7.30
2019-03-30T12:52:26.489Z,6.58
2019-03-30T12:54:32.158Z,7.00
2019-03-30T12:56:37.783Z,7.08
2019-03-30T12:58:43.115Z,7.75
2019-03-30T13:00:48.391Z,7.53
2019-03-30T13:02:53.738Z,7.87
2019-03-30T13:04:59.357Z,7.50
2019-03-30T13:07:04.674Z,8.10
2019-03-30T13:09:10.010Z,7.30
2019-03-30T13:11:15.267Z,7.70
2019-03-30T13:13:20.578Z,7.70
2019-03-30T13:15:25.949Z,8.27
2019-03-30T13:17:31.238Z,8.10
2019-03-30T13:19:36.592Z,7.90
2019-03-30T13:21:52.454Z,7.80
2019-03-30T13:23:48.972Z,8.23
2019-03-30T13:26:03.543Z,8.87
2019-03-30T13:28:01.427Z,9.03
2019-03-30T13:30:07.892Z,8.07
2019-03-30T13:32:13.242Z,8.73
2019-03-30T13:34:18.524Z,8.63
2019-03-30T13:36:38.930Z,9.20
2019-03-30T13:38:44.248Z,8.10
2019-03-30T13:40:49.532Z,7.90
2019-03-30T13:42:54.996Z,7.53
2019-03-30T13:45:03.178Z,8.37
2019-03-30T13:47:07.219Z,8.60
2019-03-30T13:49:12.541Z,8.60
2019-03-30T13:51:18.147Z,7.73
2019-03-30T13:53:23.480Z,8.23
2019-03-30T13:55:29.111Z,7.97
2019-03-30T13:57:34.466Z,7.20
2019-03-30T13:59:39.805Z,7.53
2019-03-30T14:01:45.256Z,7.53
2019-03-30T14:03:50.534Z,7.80
2019-03-30T14:05:56.039Z,8.40
2019-03-30T14:08:01.333Z,7.80
2019-03-30T14:10:07.387Z,7.97
2019-03-30T14:12:12.691Z,8.10
2019-03-30T14:14:17.947Z,7.67
2019-03-30T14:16:23.290Z,7.53
2019-03-30T14:18:28.574Z,8.97
2019-03-30T14:20:33.891Z,8.90
2019-03-30T14:22:39.353Z,8.27
2019-03-30T14:24:44.688Z,7.87
2019-03-30T14:26:49.967Z,8.47
2019-03-30T14:28:55.593Z,8.87
2019-03-30T14:31:01.041Z,9.53
2019-03-30T14:33:06.368Z,9.40
2019-03-30T14:35:12.077Z,10.43
2019-03-30T14:37:17.686Z,9.37
2019-03-30T14:39:23.033Z,10.63
2019-03-30T14:41:28.523Z,9.23
2019-03-30T14:43:33.825Z,9.97
2019-03-30T14:45:39.151Z,9.87
2019-03-30T14:47:44.465Z,9.10
2019-03-30T14:49:49.790Z,9.17
2019-03-30T14:51:55.091Z,9.70
2019-03-30T14:54:00.436Z,8.77
2019-03-30T14:56:05.935Z,8.77
2019-03-30T14:58:11.211Z,10.37
2019-03-30T15:00:17.693Z,8.57
2019-03-30T15:02:23.115Z,8.70
2019-03-30T15:04:28.698Z,9.33
2019-03-30T15:06:34.026Z,8.63
2019-03-30T15:08:39.355Z,8.80
2019-03-30T15:10:44.651Z,9.00
2019-03-30T15:12:49.994Z,7.90
2019-03-30T15:14:55.276Z,8.60
2019-03-30T15:17:00.607Z,8.70
2019-03-30T15:19:05.902Z,8.27
2019-03-30T15:21:11.193Z,8.77
2019-03-30T15:23:16.539Z,8.70
2019-03-30T15:25:22.159Z,8.60
2019-03-30T15:27:27.462Z,9.20
2019-03-30T15:29:32.766Z,9.20
2019-03-30T15:31:38.041Z,8.97
2019-03-30T15:33:43.597Z,8.53
2019-03-30T15:35:48.887Z,9.53
2019-03-30T15:37:54.157Z,8.67
2019-03-30T15:39:59.900Z,9.47
2019-03-30T15:42:05.302Z,9.50
2019-03-30T15:44:10.678Z,10.20
2019-03-30T15:46:16.089Z,8.80
2019-03-30T15:48:21.355Z,9.43
2019-03-30T15:50:26.710Z,9.30
2019-03-30T15:52:32.087Z,8.97
2019-03-30T15:54:37.493Z,9.30
2019-03-30T15:56:42.766Z,9.20
2019-03-30T15:58:48.450Z,9.67
2019-03-30T16:00:53.791Z,8.70
2019-03-30T16:02:59.112Z,9.90
2019-03-30T16:05:04.524Z,9.77
2019-03-30T16:07:09.954Z,10.37
2019-03-30T16:09:15.209Z,9.87
2019-03-30T16:11:21.575Z,10.40
2019-03-30T16:13:27.317Z,11.33
2019-03-30T16:15:32.590Z,10.43
2019-03-30T16:17:37.942Z,10.40
2019-03-30T16:19:43.256Z,10.00
2019-03-30T16:21:49.794Z,9.80
2019-03-30T16:23:55.207Z,11.37
2019-03-30T16:26:00.602Z,12.40
2019-03-30T16:28:05.935Z,11.50
2019-03-30T16:30:11.877Z,10.57
2019-03-30T16:32:17.137Z,10.60
2019-03-30T16:34:22.788Z,10.10
2019-03-30T16:36:28.097Z,9.73
2019-03-30T16:38:33.386Z,11.07
2019-03-30T16:40:38.729Z,10.63
2019-03-30T16:42:44.047Z,10.83
2019-03-30T16:44:49.338Z,11.17
2019-03-30T16:46:57.325Z,10.30
2019-03-30T16:49:01.718Z,10.40
2019-03-30T16:51:07.021Z,9.87
2019-03-30T16:53:12.367Z,10.77
2019-03-30T16:55:18.029Z,10.10
2019-03-30T16:57:23.316Z,10.20
2019-03-30T16:59:28.605Z,10.67
2019-03-30T17:01:33.956Z,11.63
2019-03-30T17:03:39.219Z,10.37
2019-03-30T17:05:44.543Z,10.03
2019-03-30T17:07:49.912Z,10.80
2019-03-30T17:09:55.166Z,10.40
2019-03-30T17:12:01.936Z,10.77
2019-03-30T17:14:07.201Z,10.80
2019-03-30T17:16:12.522Z,10.93
2019-03-30T17:18:17.817Z,11.83
2019-03-30T17:20:23.176Z,11.80
2019-03-30T17:22:28.511Z,10.57
2019-03-30T17:24:33.794Z,12.10
2019-03-30T17:26:39.093Z,10.97
2019-03-30T17:28:44.698Z,11.07
2019-03-30T17:30:50.310Z,11.27
2019-03-30T17:32:55.587Z,11.80
2019-03-30T17:35:00.886Z,11.57
2019-03-30T17:37:06.511Z,9.90
2019-03-30T17:39:12.933Z,12.47
2019-03-30T17:41:18.254Z,11.60
2019-03-30T17:43:23.567Z,11.60
2019-03-30T17:45:28.856Z,11.60
2019-03-30T17:47:34.130Z,12.13
2019-03-30T17:49:39.435Z,12.33
2019-03-30T17:51:44.772Z,12.60
2019-03-30T17:53:50.055Z,10.80
2019-03-30T17:55:55.359Z,11.73
2019-03-30T17:58:12.185Z,12.30
2019-03-30T18:00:09.707Z,11.70
2019-03-30T18:02:15.010Z,11.70
2019-03-30T18:04:20.335Z,13.53
2019-03-30T18:06:25.634Z,12.13
2019-03-30T18:08:30.960Z,11.83
2019-03-30T18:10:36.940Z,12.97
2019-03-30T18:12:42.351Z,13.60
2019-03-30T18:14:47.712Z,14.10
2019-03-30T18:16:53.076Z,14.13
2019-03-30T18:18:58.391Z,14.30
2019-03-30T18:21:03.678Z,13.90
2019-03-30T18:23:08.958Z,14.00
2019-03-30T18:25:14.584Z,14.37
2019-03-30T18:27:20.179Z,13.90
2019-03-30T18:29:25.813Z,14.37
2019-03-30T18:31:31.144Z,15.73
2019-03-30T18:33:36.836Z,14.53
2019-03-30T18:35:42.262Z,15.20
2019-03-30T18:37:47.652Z,16.63
2019-03-30T18:39:53.290Z,16.40
2019-03-30T18:41:58.572Z,16.60
2019-03-30T18:44:04.261Z,16.63
2019-03-30T18:46:09.559Z,15.70
2019-03-30T18:48:18.467Z,17.10
2019-03-30T18:50:24.190Z,16.33
2019-03-30T18:52:29.850Z,16.77
2019-03-30T18:54:35.866Z,16.77
2019-03-30T18:56:41.159Z,18.27
2019-03-30T18:58:46.490Z,17.87
2019-03-30T19:00:52.280Z,18.63
2019-03-30T19:02:57.713Z,18.70
2019-03-30T19:05:03.733Z,17.80
2019-03-30T19:07:09.024Z,18.67
2019-03-30T19:09:14.763Z,20.37
2019-03-30T19:11:20.114Z,19.40
2019-03-30T19:13:25.859Z,21.47
2019-03-30T19:15:32.451Z,22.50
2019-03-30T19:17:37.723Z,21.00
2019-03-30T19:19:43.018Z,19.77
2019-03-30T19:21:48.427Z,19.47
2019-03-30T19:23:53.871Z,21.30
2019-03-30T19:25:59.172Z,19.43
2019-03-30T19:28:04.492Z,19.43
2019-03-30T19:30:11.104Z,19.70
2019-03-30T19:32:16.455Z,19.50
2019-03-30T19:34:21.892Z,20.80
2019-03-30T19:36:27.214Z,20.27
2019-03-30T19:38:32.536Z,22.07
2019-03-30T19:40:38.151Z,21.40
2019-03-30T19:42:44.076Z,20.20
2019-03-30T19:44:49.404Z,21.10
2019-03-30T19:46:54.696Z,21.87
2019-03-30T19:48:59.992Z,21.07
2019-03-30T19:51:05.341Z,21.37
2019-03-30T19:53:10.787Z,21.07
2019-03-30T19:55:16.060Z,21.90
2019-03-30T19:57:21.385Z,22.30
2019-03-30T19:59:26.780Z,23.00
2019-03-30T20:01:32.138Z,23.10
2019-03-30T20:03:37.466Z,22.80
2019-03-30T20:05:44.634Z,22.40
2019-03-30T20:07:50.166Z,23.03
2019-03-30T20:09:55.785Z,23.23
2019-03-30T20:12:01.496Z,23.10
2019-03-30T20:14:06.809Z,22.53
2019-03-30T20:16:12.112Z,21.47
2019-03-30T20:18:17.514Z,22.57
2019-03-30T20:20:23.308Z,22.43
2019-03-30T20:22:28.632Z,22.07
2019-03-30T20:24:34.435Z,24.10
2019-03-30T20:26:39.911Z,23.10
2019-03-30T20:28:45.588Z,23.50
2019-03-30T20:30:50.903Z,23.23
2019-03-30T20:32:56.220Z,23.33
2019-03-30T20:35:01.500Z,24.17
2019-03-30T20:37:06.868Z,23.97
2019-03-30T20:39:12.330Z,23.87
2019-03-30T20:41:17.696Z,24.57
2019-03-30T20:43:23.303Z,24.00
2019-03-30T20:45:28.969Z,24.07
2019-03-30T20:47:34.269Z,25.17
2019-03-30T20:49:40.203Z,23.50
2019-03-30T20:51:46.431Z,24.23
2019-03-30T20:53:52.085Z,26.00
2019-03-30T20:55:57.402Z,25.60
2019-03-30T20:58:05.465Z,25.07
2019-03-30T21:00:11.422Z,27.63
2019-03-30T21:02:16.699Z,27.70
2019-03-30T21:04:22.301Z,27.20
2019-03-30T21:06:27.638Z,27.00
2019-03-30T21:08:33.196Z,27.23
2019-03-30T21:10:38.512Z,27.27
2019-03-30T21:12:43.886Z,27.13
2019-03-30T21:14:49.529Z,28.60
2019-03-30T21:16:54.796Z,28.73
2019-03-30T21:19:00.164Z,29.03
2019-03-30T21:21:08.988Z,27.73
2019-03-30T21:23:12.838Z,27.07
2019-03-30T21:25:18.211Z,27.73
2019-03-30T21:27:23.859Z,26.37
2019-03-30T21:29:29.643Z,27.37
2019-03-30T21:31:35.002Z,26.30
2019-03-30T21:33:40.342Z,26.60
2019-03-30T21:35:45.710Z,28.20
2019-03-30T21:37:51.226Z,26.50
2019-03-30T21:39:56.871Z,27.03
2019-03-30T21:42:02.188Z,27.00
2019-03-30T21:44:21.092Z,26.70
2019-03-30T21:46:14.725Z,28.40
2019-03-30T21:48:20.070Z,26.53
2019-03-30T21:50:25.374Z,28.60
2019-03-30T21:52:30.688Z,29.10
2019-03-30T21:54:35.985Z,31.50
2019-03-30T21:56:41.275Z,28.60
2019-03-30T21:58:46.933Z,29.23
2019-03-30T22:00:52.282Z,31.13
2019-03-30T22:02:57.883Z,29.30
2019-03-30T22:05:03.216Z,30.10
2019-03-30T22:07:08.698Z,30.43
2019-03-30T22:09:13.999Z,31.60
2019-03-30T22:11:20.284Z,29.50
2019-03-30T22:13:26.186Z,31.30
2019-03-30T22:15:31.689Z,30.30
2019-03-30T22:17:37.028Z,29.83
2019-03-30T22:19:42.735Z,30.47
2019-03-30T22:21:48.719Z,32.30
2019-03-30T22:23:54.418Z,31.70
2019-03-30T22:26:00.839Z,30.70
2019-03-30T22:28:06.179Z,32.80
2019-03-30T22:30:24.148Z,31.47
2019-03-30T22:32:19.511Z,33.53
2019-03-30T22:34:24.846Z,32.53
2019-03-30T22:36:30.480Z,31.77
2019-03-30T22:38:36.867Z,32.77
2019-03-30T22:40:42.655Z,33.27
2019-03-30T22:42:47.995Z,33.90
2019-03-30T22:44:55.647Z,31.27
2019-03-30T22:47:01.293Z,34.63
2019-03-30T22:49:08.600Z,32.33
2019-03-30T22:51:14.307Z,35.90
2019-03-30T22:53:19.664Z,35.93
2019-03-30T22:55:25.107Z,38.40
2019-03-30T22:57:30.420Z,37.33
2019-03-30T22:59:35.816Z,36.10
2019-03-30T23:01:41.509Z,36.77
2019-03-30T23:03:57.112Z,37.00
2019-03-30T23:06:04.406Z,35.20
2019-03-30T23:08:11.924Z,34.67
2019-03-30T23:10:39.097Z,35.93
2019-03-30T23:12:40.866Z,34.80
2019-03-30T23:14:47.784Z,36.00
2019-03-30T23:16:53.126Z,37.23
2019-03-30T23:18:58.598Z,36.20
2019-03-30T23:21:04.261Z,37.00
2019-03-30T23:23:09.900Z,37.17
2019-03-30T23:25:15.352Z,37.40
2019-03-30T23:27:20.711Z,35.63
2019-03-30T23:29:26.179Z,36.70
2019-03-30T23:31:31.915Z,37.10
2019-03-30T23:33:37.568Z,37.40
2019-03-30T23:35:42.907Z,36.57
2019-03-30T23:37:48.223Z,37.13
2019-03-30T23:39:53.598Z,35.27
2019-03-30T23:41:58.921Z,36.50
2019-03-30T23:44:04.710Z,36.10
2019-03-30T23:46:10.046Z,37.60
2019-03-30T23:48:15.916Z,36.70
2019-03-30T23:50:21.257Z,36.30
2019-03-30T23:52:26.580Z,35.30
2019-03-30T23:54:31.851Z,36.97
2019-03-30T23:56:37.171Z,37.50
2019-03-30T23:58:42.788Z,37.00
